デンパサール国際空港の過去48時間の天気

デンパサール国際空港 (Ngurah Rai International Airport)

現在時刻: 9/25 10:11 WITA (9/25 02:11 UTC) 以下の時間は現地時間です。

過去48時間のMETAR気象情報
時間 風向 風速(m/s) 視程 気温(℃) 湿度(%) 気圧(hPa) 天気現象
25 09:30 5 10km以上 29 74 1013
25 09:00 5 10km以上 27 79 1013
25 08:30 5 10km以上 28 79 1013
25 08:00 東南東 4 10km以上 27 84 1013
25 07:30 東南東 3 10km以上 27 84 1013
25 07:00 2 10km以上 27 79 1012
25 06:30 東南東 2 10km以上 26 84 1012
25 06:00 東南東 3 10km以上 26 84 1012
25 05:30 3 10km以上 26 84 1011
25 05:00 東南東 3 10km以上 26 84 1011
25 04:00 3 10km以上 26 84 1011
25 03:30 東南東 4 10km以上 26 84 1011
25 03:00 2 10km以上 26 84 1011
25 02:30 3 10km以上 26 84 1012
25 02:00 3 10km以上 26 89 1012
25 01:30 3 10km以上 27 84 1012
25 01:00 3 10km以上 27 84 1012
25 00:30 3 10km以上 27 84 1012
25 00:00 4 10km以上 27 84 1013
24 23:30 4 10km以上 27 84 1013
24 23:00 4 10km以上 27 79 1013
24 22:30 4 10km以上 27 84 1013
24 22:00 東南東 3 10km以上 27 84 1013
24 21:30 東南東 4 10km以上 27 84 1013
24 21:00 東南東 4 10km以上 27 84 1013
24 20:30 南東 4 10km以上 27 79 1012
24 20:00 東南東 4 10km以上 27 84 1012
24 19:30 東南東 5 10km以上 27 84 1011
24 19:00 東南東 5 10km以上 27 84 1011
24 18:30 南東 5 10km以上 27 79 1010
24 18:00 南東 5 10km以上 28 74 1010
24 17:30 南東 5 10km以上 28 74 1010
24 17:00 南東 5 10km以上 29 70 1010
24 16:30 東南東 6 10km以上 29 70 1010
24 16:00 5 10km以上 30 62 1010
24 15:30 東南東 7 10km以上 30 62 1010
24 15:00 7 10km以上 30 66 1010
24 14:30 東南東 7 10km以上 30 62 1010
24 14:00 東南東 7 10km以上 30 66 1010
24 13:30 東南東 8 10km以上 30 66 1011
24 13:00 8 10km以上 30 66 1012
24 12:30 7 10km以上 30 62 1012
24 12:00 7 10km以上 30 62 1012
24 11:30 東南東 7 10km以上 29 66 1013
24 11:00 6 10km以上 30 66 1013
24 10:30 6 10km以上 29 70 1014
24 10:00 5 10km以上 29 70 1014
24 09:30 5 10km以上 29 70 1014
24 09:00 5 10km以上 29 70 1014
24 08:30 5 10km以上 29 70 1014
24 08:00 東北東 5 10km以上 28 74 1013
24 07:30 5 10km以上 27 79 1013
24 07:00 5 10km以上 27 79 1013
24 06:30 東北東 5 10km以上 26 84 1013
24 06:00 東北東 4 10km以上 26 89 1013
24 05:30 3 10km以上 26 89 1013
24 05:00 3 10km以上 26 89 1012
24 04:30 4 10km以上 26 89 1012
24 04:00 4 10km以上 27 79 1012
24 03:30 4 10km以上 27 79 1012
24 03:00 4 10km以上 27 84 1012
24 02:30 5 10km以上 27 84 1013
24 02:00 5 10km以上 27 84 1013
24 01:30 5 10km以上 27 84 1013
24 01:00 東南東 5 10km以上 27 84 1013
24 00:30 5 10km以上 27 84 1014
24 00:00 5 10km以上 27 84 1014
23 23:30 5 10km以上 27 84 1014
23 23:00 6 10km以上 27 84 1014
23 22:30 7 10km以上 27 84 1014
23 22:00 6 10km以上 27 84 1014
23 21:30 7 10km以上 27 84 1014
23 21:00 6 10km以上 27 84 1014
23 20:30 7 10km以上 27 84 1013
23 20:00 6 10km以上 27 84 1013
23 19:30 6 10km以上 27 84 1013
23 19:00 7 10km以上 27 84 1012
23 18:30 6 10km以上 27 84 1012
23 18:00 6 10km以上 28 79 1012
23 17:30 7 10km以上 28 79 1012
23 17:00 東南東 6 10km以上 28 79 1012
23 16:30 東南東 7 10km以上 28 79 1012
23 16:00 東南東 7 10km以上 28 74 1012
23 15:30 東南東 8 10km以上 28 74 1012
23 15:00 東南東 7 10km以上 29 74 1012
23 14:30 東南東 6 10km以上 29 70 1012
23 14:00 東南東 6 10km以上 30 66 1012
23 13:30 東南東 8 10km以上 30 70 1012
23 13:00 東南東 8 10km以上 30 66 1013
23 12:30 東南東 7 10km以上 30 66 1013
23 12:00 6 10km以上 30 66 1014
23 11:30 東南東 6 10km以上 30 70 1014
23 11:00 6 10km以上 29 70 1015
23 10:30 6 10km以上 29 74 1015
WADD 250130Z 09010KT 9999 FEW013 SCT018 29/24 Q1013 NOSIG
WADD 250100Z 10009KT 9999 FEW016 SCT018 27/23 Q1013 NOSIG
WADD 250030Z 10009KT 9999 FEW018 28/24 Q1013 NOSIG
WADD 250000Z 11007KT 9999 SCT016 27/24 Q1013 NOSIG
WADD 242330Z 11006KT 9999 FEW016 27/24 Q1013 NOSIG
WADD 242300Z 10004KT 9999 SCT017 27/23 Q1012 NOSIG
WADD 242230Z 11003KT 9999 FEW015 26/23 Q1012 NOSIG
WADD 242200Z 11005KT 9999 FEW016 26/23 Q1012 NOSIG
WADD 242130Z 10005KT 9999 FEW016 26/23 Q1011 NOSIG
WADD 242100Z 11005KT 9999 SCT017 26/23 Q1011 NOSIG
WADD 242000Z 10006KT 9999 FEW017 SCT037 26/23 Q1011 NOSIG
WADD 241930Z 11007KT 9999 SCT018 SCT036 26/23 Q1011 NOSIG
WADD 241900Z 09004KT 9999 FEW017 SCT035 26/23 Q1011 NOSIG
WADD 241830Z 10005KT 9999 FEW014 SCT037 26/23 Q1012 NOSIG
WADD 241800Z 09005KT 9999 FEW015 SCT042 26/24 Q1012 NOSIG
WADD 241730Z 10005KT 9999 FEW017 27/24 Q1012 NOSIG
WADD 241700Z 10006KT 9999 FEW017 BKN040 27/24 Q1012 NOSIG
WADD 241630Z 10006KT 9999 FEW017 27/24 Q1012 NOSIG
WADD 241600Z 10007KT 9999 FEW017 SCT033 27/24 Q1013 NOSIG
WADD 241530Z 10007KT 9999 FEW017 27/24 Q1013 NOSIG
WADD 241500Z 10008KT 9999 FEW017 27/23 Q1013 NOSIG
WADD 241430Z 10007KT 9999 FEW019 27/24 Q1013 NOSIG
WADD 241400Z 11006KT 9999 FEW017 27/24 Q1013 NOSIG
WADD 241330Z 11008KT 9999 FEW017 27/24 Q1013 NOSIG
WADD 241300Z 12008KT 9999 SCT017 27/24 Q1013 NOSIG
WADD 241230Z 13008KT 9999 FEW017 27/23 Q1012 NOSIG
WADD 241200Z 11008KT 9999 FEW017 27/24 Q1012 NOSIG
WADD 241130Z 11010KT 9999 FEW017 27/24 Q1011 NOSIG
WADD 241100Z 12009KT 9999 SCT017 27/24 Q1011 NOSIG
WADD 241030Z 14010KT 9999 FEW017 27/23 Q1010 NOSIG
WADD 241000Z 14010KT 9999 FEW017 28/23 Q1010 NOSIG
WADD 240930Z 14010KT 9999 FEW017 28/23 Q1010 NOSIG
WADD 240900Z 13009KT 9999 FEW017 29/23 Q1010 NOSIG
WADD 240830Z 11011KT 9999 FEW017 29/23 Q1010 NOSIG
WADD 240800Z 10010KT 080V140 9999 FEW017 30/22 Q1010 NOSIG
WADD 240730Z 11014KT 9999 FEW017 30/22 Q1010 NOSIG
WADD 240700Z 10014KT 9999 FEW017 30/23 Q1010 NOSIG
WADD 240630Z 12013KT 9999 FEW017 30/22 Q1010 NOSIG
WADD 240600Z 12014KT 9999 FEW017 30/23 Q1010 NOSIG
WADD 240530Z 11016KT 9999 FEW017 30/23 Q1011 NOSIG
WADD 240500Z 10016KT 9999 FEW017 30/23 Q1012 NOSIG
WADD 240430Z 10014KT 9999 FEW017 30/22 Q1012 NOSIG
WADD 240400Z 10014KT 9999 FEW017 30/22 Q1012 NOSIG
WADD 240330Z 11014KT 9999 FEW017 29/22 Q1013 NOSIG
WADD 240300Z 10012KT 060V120 9999 FEW017 30/23 Q1013 NOSIG
WADD 240230Z 10012KT 9999 FEW017 29/23 Q1014 NOSIG
WADD 240200Z 09009KT 9999 FEW017 29/23 Q1014 NOSIG
WADD 240130Z 09010KT 9999 FEW017 29/23 Q1014 NOSIG
WADD 240100Z 08009KT 9999 FEW017 29/23 Q1014 NOSIG
WADD 240030Z 08010KT 9999 FEW017 29/23 Q1014 NOSIG
WADD 240000Z 07010KT 9999 FEW017 28/23 Q1013 NOSIG
WADD 232330Z 08009KT 9999 FEW017 27/23 Q1013 NOSIG
WADD 232300Z 08009KT 9999 FEW017 27/23 Q1013 NOSIG
WADD 232230Z 07009KT 9999 FEW017 26/23 Q1013 NOSIG
WADD 232200Z 07008KT 9999 FEW017 26/24 Q1013 NOSIG
WADD 232130Z 08006KT 9999 FEW017 26/24 Q1013 NOSIG
WADD 232100Z 08006KT 9999 FEW017 26/24 Q1012 NOSIG
WADD 232030Z 09007KT 9999 FEW017 26/24 Q1012 NOSIG
WADD 232000Z 09007KT 9999 FEW017 27/23 Q1012 NOSIG
WADD 231930Z 09007KT 9999 FEW017 27/23 Q1012 NOSIG
WADD 231900Z 10008KT 9999 FEW017 27/24 Q1012 NOSIG
WADD 231830Z 10009KT 9999 FEW017 27/24 Q1013 NOSIG
WADD 231800Z 10010KT 9999 FEW017 27/24 Q1013 NOSIG
WADD 231730Z 10009KT 9999 FEW017 27/24 Q1013 NOSIG
WADD 231700Z 11010KT 9999 FEW017 27/24 Q1013 NOSIG
WADD 231630Z 10009KT 9999 FEW017 27/24 Q1014 NOSIG
WADD 231600Z 09009KT 9999 FEW017 27/24 Q1014 NOSIG
WADD 231530Z 08010KT 9999 FEW017 27/24 Q1014 NOSIG
WADD 231500Z 09012KT 9999 FEW017 27/24 Q1014 NOSIG
WADD 231430Z 09013KT 9999 FEW017 27/24 Q1014 NOSIG
WADD 231400Z 10012KT 9999 FEW017 27/24 Q1014 NOSIG
WADD 231330Z 10013KT 9999 FEW017 27/24 Q1014 NOSIG
WADD 231300Z 10012KT 9999 FEW017 27/24 Q1014 NOSIG
WADD 231230Z 10014KT 9999 FEW017 27/24 Q1013 NOSIG
WADD 231200Z 10012KT 9999 FEW017 27/24 Q1013 NOSIG
WADD 231130Z 09012KT 9999 FEW017 27/24 Q1013 NOSIG
WADD 231100Z 10013KT 9999 FEW017 27/24 Q1012 NOSIG
WADD 231030Z 09011KT 9999 FEW017 27/24 Q1012 NOSIG
WADD 231000Z 10011KT 9999 FEW016 28/24 Q1012 NOSIG
WADD 230930Z 10013KT 9999 SCT016 28/24 Q1012 NOSIG
WADD 230900Z 11012KT 9999 FEW017CB SCT017 28/24 Q1012 NOSIG
WADD 230830Z 12014KT 9999 FEW017CB FEW018 28/24 Q1012 NOSIG
WADD 230800Z 12014KT 9999 FEW017CB FEW018 28/23 Q1012 NOSIG
WADD 230730Z 11015KT 9999 FEW017CB FEW018 28/23 Q1012 NOSIG
WADD 230700Z 11013KT 9999 FEW017CB FEW018 29/24 Q1012 NOSIG
WADD 230630Z 12012KT 9999 FEW018 29/23 Q1012 NOSIG
WADD 230600Z 11012KT 9999 SCT017 30/23 Q1012 NOSIG
WADD 230530Z 12015KT 9999 FEW017 30/24 Q1012 NOSIG
WADD 230500Z 12015KT 9999 FEW017 30/23 Q1013 NOSIG
WADD 230430Z 11013KT 9999 SCT017 30/23 Q1013 NOSIG
WADD 230400Z 10012KT 9999 SCT017 30/23 Q1014 NOSIG
WADD 230330Z 11011KT 9999 FEW017 30/24 Q1014 NOSIG
WADD 230300Z 10012KT 9999 FEW017 29/23 Q1015 NOSIG
WADD 230230Z 09011KT 9999 FEW017 29/24 Q1015 NOSIG